Time;durP1;ratioP1;P1;durP2;ratioP2;P2;SDS_P1;SDS_P2;PMS_P1;PMS_P2;Temp;Humidity;BMP_temperature;BMP_pressure;BME280_temperature;BME280_humidity;BME280_pressure;Samples;Min_cycle;Max_cycle;Signal;HPM_P1;HPM_P2
2022/12/25 00:01:46;;;;;;;0.70;0.70;;;16.80;55.60;;;;;;5069670;28;45202;-78
2022/12/25 00:04:13;;;;;;;0.57;0.57;;;16.80;55.60;;;;;;5069499;27;45212;-78
2022/12/25 00:06:41;;;;;;;0.70;0.70;;;16.70;55.60;;;;;;5068551;28;45217;-78
2022/12/25 00:09:08;;;;;;;1.08;0.80;;;16.70;55.60;;;;;;5065263;28;45357;-78
2022/12/25 00:11:35;;;;;;;1.15;0.63;;;16.70;55.60;;;;;;5069054;28;45470;-78
2022/12/25 00:14:01;;;;;;;0.43;0.43;;;16.70;55.60;;;;;;5068421;28;45278;-78
2022/12/25 00:16:28;;;;;;;0.70;0.70;;;16.70;55.60;;;;;;5069396;28;45194;-78
2022/12/25 00:18:57;;;;;;;0.88;0.60;;;16.70;55.60;;;;;;5069757;28;45197;-78
2022/12/25 00:21:24;;;;;;;1.50;0.80;;;16.70;55.60;;;;;;5069479;27;45621;-78
2022/12/25 00:23:54;;;;;;;0.88;0.73;;;16.70;55.60;;;;;;5069271;28;45255;-78
2022/12/25 00:26:21;;;;;;;0.55;0.55;;;16.80;56.20;;;;;;5069054;28;44680;-77
2022/12/25 00:28:50;;;;;;;0.60;0.60;;;16.80;55.60;;;;;;5068497;28;45343;-78
2022/12/25 00:31:18;;;;;;;0.90;0.75;;;16.80;55.50;;;;;;5068449;28;45457;-78
2022/12/25 00:33:45;;;;;;;0.65;0.65;;;16.80;55.40;;;;;;5069289;27;45265;-78
2022/12/25 00:36:13;;;;;;;0.60;0.60;;;16.90;55.40;;;;;;5067636;27;45402;-78
2022/12/25 00:38:41;;;;;;;0.60;0.60;;;16.90;55.40;;;;;;5068274;27;45576;-78
2022/12/25 00:41:10;;;;;;;0.90;0.80;;;16.90;55.40;;;;;;5066945;27;45461;-78
2022/12/25 00:43:37;;;;;;;0.82;0.55;;;16.90;55.40;;;;;;5067447;28;45377;-78
2022/12/25 00:46:05;;;;;;;0.60;0.60;;;16.90;55.40;;;;;;5068287;28;45277;-78
2022/12/25 00:48:32;;;;;;;0.95;0.70;;;16.90;55.40;;;;;;5067698;27;45231;-78
2022/12/25 00:50:59;;;;;;;0.70;0.70;;;16.80;55.30;;;;;;5067254;28;45656;-77
2022/12/25 00:53:27;;;;;;;0.57;0.57;;;16.80;55.40;;;;;;5066307;28;45513;-78
2022/12/25 00:55:55;;;;;;;0.50;0.50;;;16.80;55.40;;;;;;5066444;28;45352;-78
2022/12/25 00:58:23;;;;;;;0.63;0.63;;;16.80;55.50;;;;;;5067102;28;45148;-78
2022/12/25 01:00:50;;;;;;;1.45;0.80;;;16.80;55.50;;;;;;5066575;27;46689;-78
2022/12/25 01:03:17;;;;;;;0.63;0.63;;;16.80;55.50;;;;;;5066412;28;45340;-78
2022/12/25 01:05:44;;;;;;;0.80;0.80;;;16.80;55.50;;;;;;5067108;27;45256;-78
2022/12/25 01:08:10;;;;;;;0.98;0.80;;;16.80;55.50;;;;;;5067754;27;45405;-78
2022/12/25 01:10:36;;;;;;;0.60;0.60;;;16.80;55.50;;;;;;5066649;28;46709;-78
2022/12/25 01:13:03;;;;;;;0.80;0.80;;;16.80;55.50;;;;;;5066968;28;45179;-78
2022/12/25 01:15:31;;;;;;;0.90;0.90;;;16.80;55.60;;;;;;5066634;28;45179;-78
2022/12/25 01:17:58;;;;;;;0.70;0.70;;;16.80;55.60;;;;;;5067196;28;45386;-78
2022/12/25 01:20:25;;;;;;;1.20;0.80;;;16.80;55.60;;;;;;5066388;28;46312;-78
2022/12/25 01:22:52;;;;;;;1.23;0.85;;;16.80;56.20;;;;;;5066167;28;45211;-78
2022/12/25 01:25:19;;;;;;;0.90;0.90;;;16.80;55.60;;;;;;5066879;28;45264;-78
2022/12/25 01:27:45;;;;;;;0.85;0.85;;;16.70;55.60;;;;;;5066444;27;45157;-78
2022/12/25 01:30:12;;;;;;;0.60;0.60;;;16.70;55.60;;;;;;5066259;28;45298;-78
2022/12/25 01:32:41;;;;;;;0.82;0.82;;;16.70;55.60;;;;;;5065059;28;45351;-78
2022/12/25 01:35:08;;;;;;;0.90;0.80;;;16.70;56.30;;;;;;5066174;27;45130;-78
2022/12/25 01:37:35;;;;;;;1.00;0.80;;;16.70;55.60;;;;;;5066027;28;45341;-78
2022/12/25 01:40:02;;;;;;;1.27;1.05;;;16.70;55.60;;;;;;5066268;28;45472;-78
2022/12/25 01:42:28;;;;;;;0.80;0.80;;;16.70;55.70;;;;;;5065551;28;45368;-78
2022/12/25 01:45:35;;;;;;;0.95;0.95;;;16.70;55.70;;;;;;5065063;28;45273;-78
2022/12/25 01:48:06;;;;;;;0.90;0.90;;;16.70;55.70;;;;;;5065143;28;45202;-78
2022/12/25 01:50:33;;;;;;;0.77;0.77;;;16.70;56.30;;;;;;5064636;28;45508;-78
2022/12/25 01:53:00;;;;;;;0.82;0.80;;;16.70;55.70;;;;;;5064111;28;45275;-78
2022/12/25 01:55:27;;;;;;;1.85;0.90;;;16.70;55.70;;;;;;5064613;28;45209;-78
2022/12/25 01:57:53;;;;;;;1.70;0.90;;;16.70;55.70;;;;;;5064686;28;45175;-78
2022/12/25 02:00:21;;;;;;;0.80;0.80;;;16.70;55.70;;;;;;5064277;28;46312;-78
2022/12/25 02:02:47;;;;;;;1.48;1.05;;;16.70;55.80;;;;;;5064633;27;45357;-77
2022/12/25 02:05:17;;;;;;;1.15;0.80;;;16.70;55.80;;;;;;5064526;27;45247;-78
2022/12/25 02:07:45;;;;;;;0.80;0.80;;;16.70;55.80;;;;;;5064279;28;45162;-77
2022/12/25 02:10:12;;;;;;;0.68;0.68;;;16.70;55.80;;;;;;5063758;28;45458;-78
2022/12/25 02:12:39;;;;;;;0.70;0.70;;;16.70;55.80;;;;;;5064342;28;45273;-78
2022/12/25 02:15:07;;;;;;;1.25;1.10;;;16.70;55.80;;;;;;5064185;28;45282;-78
2022/12/25 02:17:38;;;;;;;0.90;0.80;;;16.70;56.40;;;;;;5064365;27;45159;-78
2022/12/25 02:20:23;;;;;;;0.90;0.90;;;16.70;55.80;;;;;;5064114;28;46562;-78
2022/12/25 02:22:55;;;;;;;1.58;0.98;;;16.60;55.80;;;;;;5063598;28;45365;-78
2022/12/25 02:25:30;;;;;;;1.05;1.00;;;16.60;55.80;;;;;;5064108;28;45292;-78
2022/12/25 02:28:07;;;;;;;1.77;1.30;;;16.60;55.80;;;;;;5064225;28;45390;-78
2022/12/25 02:30:35;;;;;;;0.85;0.85;;;16.60;55.80;;;;;;5064008;28;45429;-78
2022/12/25 02:35:46;;;;;;;1.15;1.05;;;16.60;55.80;;;;;;5063660;27;45309;-78
2022/12/25 02:38:14;;;;;;;2.05;1.10;;;16.60;55.90;;;;;;5064245;28;45269;-78
2022/12/25 02:40:41;;;;;;;1.42;1.25;;;16.60;55.90;;;;;;5063873;28;47041;-78
2022/12/25 03:08:04;;;;;;;0.90;0.90;;;16.60;56.00;;;;;;5063842;28;45341;-78
2022/12/25 03:13:16;;;;;;;0.93;0.90;;;16.60;56.00;;;;;;5063617;28;45848;-78
2022/12/25 03:18:29;;;;;;;0.80;0.80;;;16.60;56.00;;;;;;5066711;28;45198;-78
2022/12/25 03:31:10;;;;;;;1.70;1.13;;;16.50;56.00;;;;;;5066033;28;45221;-78
2022/12/25 03:31:59;;;;;;;1.10;1.00;;;16.50;56.00;;;;;;5066095;27;45451;-78
2022/12/25 03:37:35;;;;;;;1.30;1.20;;;16.50;56.00;;;;;;5063662;28;45178;-77
2022/12/25 04:37:52;;;;;;;1.00;1.00;;;16.60;55.90;;;;;;5062309;28;45321;-78
2022/12/25 04:40:19;;;;;;;0.82;0.82;;;16.60;55.90;;;;;;5064626;28;46359;-78
2022/12/25 04:42:46;;;;;;;1.05;0.95;;;16.60;55.90;;;;;;5064933;28;45117;-77
2022/12/25 04:45:12;;;;;;;1.60;1.00;;;16.60;55.90;;;;;;5064848;28;45263;-78
2022/12/25 04:47:39;;;;;;;0.90;0.90;;;16.60;55.90;;;;;;5065224;28;45323;-78
2022/12/25 04:50:07;;;;;;;1.15;1.00;;;16.60;55.90;;;;;;5064598;28;45451;-78
2022/12/25 04:52:35;;;;;;;1.40;1.20;;;16.60;55.90;;;;;;5064579;28;45180;-77
2022/12/25 04:55:04;;;;;;;0.95;0.95;;;16.60;55.90;;;;;;5064697;28;45179;-78
2022/12/25 04:57:31;;;;;;;1.55;0.95;;;16.60;55.90;;;;;;5064598;28;45430;-78
2022/12/25 04:59:58;;;;;;;1.17;1.00;;;16.60;55.90;;;;;;5064718;28;47491;-77
2022/12/25 05:02:24;;;;;;;1.42;0.70;;;16.60;56.00;;;;;;5064308;28;45140;-78
2022/12/25 05:04:51;;;;;;;1.48;0.80;;;16.60;56.00;;;;;;5064515;28;45129;-78
2022/12/25 05:07:18;;;;;;;2.33;0.82;;;16.60;56.00;;;;;;5063406;28;45360;-78
2022/12/25 05:09:45;;;;;;;1.13;0.93;;;16.50;55.90;;;;;;5064439;28;45475;-77
2022/12/25 05:12:13;;;;;;;1.35;1.10;;;16.50;55.90;;;;;;5064341;28;45298;-77
2022/12/25 05:14:40;;;;;;;1.65;1.10;;;16.50;55.90;;;;;;5063635;27;45223;-78
2022/12/25 05:17:07;;;;;;;1.20;1.10;;;16.50;55.90;;;;;;5064526;27;45291;-78
2022/12/25 05:19:34;;;;;;;1.20;1.10;;;16.50;55.90;;;;;;5063951;28;45435;-78
2022/12/25 05:22:01;;;;;;;1.27;1.08;;;16.50;55.90;;;;;;5063903;28;45348;-77
2022/12/25 05:24:28;;;;;;;1.02;1.00;;;16.50;56.00;;;;;;5064241;28;45206;-78
2022/12/25 05:26:55;;;;;;;1.05;1.00;;;16.50;56.00;;;;;;5064211;27;45366;-78
2022/12/25 05:29:23;;;;;;;2.25;1.02;;;16.50;56.00;;;;;;5064104;28;45538;-78
2022/12/25 05:31:50;;;;;;;0.90;0.90;;;16.50;56.00;;;;;;5063982;28;45311;-78
2022/12/25 05:34:17;;;;;;;1.98;0.90;;;16.50;56.00;;;;;;5064125;28;45363;-77
2022/12/25 05:36:43;;;;;;;1.67;0.90;;;16.50;56.00;;;;;;5064211;28;45358;-77
2022/12/25 05:39:10;;;;;;;0.88;0.88;;;16.50;56.00;;;;;;5063781;27;46649;-78
2022/12/25 05:41:37;;;;;;;1.10;1.00;;;16.50;56.10;;;;;;5063672;28;45200;-77
2022/12/25 05:44:04;;;;;;;0.98;0.88;;;16.50;56.10;;;;;;5063941;28;45266;-78
2022/12/25 05:46:32;;;;;;;0.73;0.73;;;16.50;56.10;;;;;;5064303;28;45397;-77
2022/12/25 05:48:59;;;;;;;1.67;1.27;;;16.50;56.10;;;;;;5063630;28;46643;-78
2022/12/25 05:51:26;;;;;;;1.17;1.10;;;16.50;56.20;;;;;;5063702;28;45137;-77
2022/12/25 05:53:53;;;;;;;1.20;1.10;;;16.50;56.10;;;;;;5063862;27;45188;-77
2022/12/25 05:56:19;;;;;;;0.98;0.80;;;16.50;56.10;;;;;;5063527;28;45323;-78
2022/12/25 05:58:46;;;;;;;0.98;0.93;;;16.50;56.10;;;;;;5063176;28;46349;-78
2022/12/25 06:01:14;;;;;;;1.27;1.00;;;16.50;56.10;;;;;;5063715;28;45300;-78
2022/12/25 06:03:42;;;;;;;1.17;1.08;;;16.40;56.10;;;;;;5063480;28;45200;-78
2022/12/25 06:06:09;;;;;;;0.90;0.90;;;16.40;56.00;;;;;;5063976;28;45188;-78
2022/12/25 06:08:35;;;;;;;1.70;1.42;;;16.40;56.10;;;;;;5063475;28;46662;-78
2022/12/25 06:11:03;;;;;;;0.88;0.88;;;16.40;56.10;;;;;;5063406;28;45226;-78
2022/12/25 06:13:30;;;;;;;1.40;0.77;;;16.40;56.10;;;;;;5063265;28;45190;-78
2022/12/25 06:15:57;;;;;;;0.80;0.80;;;16.40;56.10;;;;;;5063593;27;45421;-78
2022/12/25 06:18:24;;;;;;;1.10;1.00;;;16.40;56.10;;;;;;5063954;28;45664;-77
2022/12/25 06:20:52;;;;;;;1.20;1.10;;;16.40;56.20;;;;;;5066353;28;45339;-78
2022/12/25 06:23:19;;;;;;;1.10;1.00;;;16.40;56.10;;;;;;5066423;28;45363;-78
2022/12/25 06:25:46;;;;;;;1.20;1.20;;;16.40;56.20;;;;;;5066996;27;45331;-78
2022/12/25 06:28:13;;;;;;;1.48;1.10;;;16.40;56.10;;;;;;5066012;28;46399;-78
2022/12/25 06:30:40;;;;;;;0.73;0.73;;;16.40;56.00;;;;;;5066424;28;45208;-77
2022/12/25 06:33:06;;;;;;;0.93;0.85;;;16.50;55.90;;;;;;5066634;28;45380;-78
2022/12/25 06:35:33;;;;;;;1.25;1.02;;;16.50;55.80;;;;;;5066550;27;45395;-78
2022/12/25 06:38:01;;;;;;;1.10;1.00;;;16.50;55.80;;;;;;5066177;28;46375;-77
2022/12/25 06:40:28;;;;;;;0.88;0.88;;;16.50;55.70;;;;;;5065686;27;45133;-78
2022/12/25 06:42:55;;;;;;;0.90;0.90;;;16.50;55.60;;;;;;5066161;28;45200;-78
2022/12/25 06:45:22;;;;;;;1.27;1.10;;;16.60;55.60;;;;;;5066666;28;45384;-78
2022/12/25 06:47:49;;;;;;;1.23;1.13;;;16.60;55.50;;;;;;5066049;28;46810;-78
2022/12/25 06:50:16;;;;;;;1.50;1.08;;;16.60;55.40;;;;;;5066126;28;45181;-78
2022/12/25 06:52:42;;;;;;;0.95;0.95;;;16.60;55.40;;;;;;5066137;28;45137;-78
2022/12/25 06:55:11;;;;;;;1.00;1.00;;;16.60;55.40;;;;;;5066388;28;45556;-78
2022/12/25 06:57:38;;;;;;;1.23;1.13;;;16.50;55.40;;;;;;5065975;28;45392;-78
2022/12/25 07:00:06;;;;;;;1.50;1.40;;;16.50;55.40;;;;;;5066113;28;45292;-78
2022/12/25 07:02:33;;;;;;;1.20;0.90;;;16.50;55.40;;;;;;5066056;28;45182;-78
2022/12/25 07:05:00;;;;;;;1.20;1.10;;;16.50;55.40;;;;;;5066511;28;45217;-78
2022/12/25 07:07:26;;;;;;;0.82;0.82;;;16.50;55.40;;;;;;5065835;28;46377;-78
2022/12/25 07:09:53;;;;;;;1.40;0.90;;;16.50;55.40;;;;;;5066150;28;45318;-78
2022/12/25 07:12:23;;;;;;;0.93;0.93;;;16.50;55.40;;;;;;5066278;28;45293;-78
2022/12/25 07:14:50;;;;;;;1.77;1.45;;;16.50;55.40;;;;;;5066517;27;45223;-78
2022/12/25 07:17:17;;;;;;;1.00;0.98;;;16.40;55.40;;;;;;5070097;27;45389;-77
2022/12/25 07:19:46;;;;;;;0.90;0.90;;;16.40;55.40;;;;;;5076320;27;45346;-78
2022/12/25 07:22:13;;;;;;;1.10;1.00;;;16.40;55.40;;;;;;5073759;27;45209;-78
2022/12/25 07:24:40;;;;;;;1.08;1.08;;;16.40;55.40;;;;;;5065447;27;45661;-78
2022/12/25 07:27:07;;;;;;;1.17;0.90;;;16.40;56.00;;;;;;5065627;28;45399;-78
2022/12/25 07:29:35;;;;;;;0.93;0.90;;;16.40;55.40;;;;;;5065506;27;45350;-78
2022/12/25 07:32:02;;;;;;;1.25;1.00;;;16.40;55.50;;;;;;5065882;28;45160;-78
2022/12/25 07:34:29;;;;;;;1.52;1.23;;;16.30;55.40;;;;;;5065854;28;45124;-78
2022/12/25 07:36:56;;;;;;;0.90;0.90;;;16.30;55.40;;;;;;5065829;28;46505;-78
2022/12/25 07:39:23;;;;;;;0.90;0.90;;;16.30;55.50;;;;;;5065983;28;45246;-78
2022/12/25 07:41:50;;;;;;;1.00;0.90;;;16.30;55.50;;;;;;5066051;28;45308;-78
2022/12/25 07:44:17;;;;;;;1.20;1.10;;;16.30;55.50;;;;;;5065751;28;45452;-78
2022/12/25 07:46:45;;;;;;;1.10;1.00;;;16.30;55.50;;;;;;5065523;27;45254;-78
2022/12/25 07:49:12;;;;;;;0.88;0.85;;;16.30;55.50;;;;;;5065515;28;45512;-78
2022/12/25 07:51:39;;;;;;;0.95;0.90;;;16.30;55.50;;;;;;5065801;28;45304;-78
2022/12/25 07:54:05;;;;;;;0.70;0.70;;;16.30;55.50;;;;;;5066109;28;45224;-78
2022/12/25 07:56:32;;;;;;;1.30;1.17;;;16.20;55.50;;;;;;5065312;27;46391;-78
2022/12/25 07:58:59;;;;;;;0.88;0.88;;;16.30;55.60;;;;;;5065143;28;45238;-79
2022/12/25 08:01:26;;;;;;;1.20;1.10;;;16.20;55.50;;;;;;5065933;28;45133;-78
2022/12/25 08:03:55;;;;;;;1.08;0.93;;;16.20;55.50;;;;;;5065489;28;45246;-78
2022/12/25 08:06:23;;;;;;;1.20;1.10;;;16.20;55.50;;;;;;5065210;28;46678;-79
2022/12/25 08:08:50;;;;;;;1.55;0.90;;;16.20;55.60;;;;;;5064612;28;45170;-78
2022/12/25 08:11:17;;;;;;;1.08;1.00;;;16.20;55.60;;;;;;5065559;27;45376;-78
2022/12/25 08:13:44;;;;;;;1.10;1.00;;;16.20;55.50;;;;;;5065956;28;45436;-79
2022/12/25 08:16:11;;;;;;;1.15;1.10;;;16.30;55.50;;;;;;5065535;27;46387;-78
2022/12/25 08:18:38;;;;;;;1.20;0.90;;;16.30;55.40;;;;;;5065508;28;45155;-78
2022/12/25 08:21:07;;;;;;;1.58;0.80;;;16.30;55.30;;;;;;5066528;28;45255;-78
2022/12/25 08:23:34;;;;;;;1.00;0.93;;;16.30;55.10;;;;;;5068241;28;45398;-78
2022/12/25 08:26:01;;;;;;;1.25;0.85;;;16.30;55.10;;;;;;5067560;27;45441;-78
2022/12/25 08:28:29;;;;;;;0.93;0.80;;;16.40;55.10;;;;;;5067745;28;45218;-78
2022/12/25 08:30:56;;;;;;;1.02;1.00;;;16.40;55.00;;;;;;5065633;28;45174;-78
2022/12/25 08:33:22;;;;;;;1.00;0.90;;;16.40;54.90;;;;;;5067787;28;45518;-78
2022/12/25 08:35:49;;;;;;;1.15;0.90;;;16.50;54.80;;;;;;5067626;27;45310;-78
2022/12/25 08:38:17;;;;;;;1.00;1.00;;;16.50;54.70;;;;;;5067821;28;45224;-78
2022/12/25 08:40:44;;;;;;;1.10;0.90;;;16.50;54.70;;;;;;5067884;28;45203;-78
2022/12/25 08:43:11;;;;;;;1.52;1.10;;;16.50;54.70;;;;;;5067441;28;45105;-78
2022/12/25 08:45:38;;;;;;;1.08;0.98;;;16.50;54.60;;;;;;5067276;28;46863;-78
2022/12/25 08:48:05;;;;;;;1.30;0.88;;;16.50;54.60;;;;;;5065811;28;45443;-78
2022/12/25 08:50:32;;;;;;;1.00;1.00;;;16.50;54.60;;;;;;5065214;28;45326;-78
2022/12/25 08:52:58;;;;;;;0.93;0.88;;;16.50;54.60;;;;;;5066302;28;45262;-78
2022/12/25 08:55:27;;;;;;;0.80;0.80;;;16.50;54.60;;;;;;5067921;28;45207;-78
2022/12/25 08:57:53;;;;;;;0.90;0.90;;;16.50;54.70;;;;;;5068441;28;45276;-78
2022/12/25 09:00:21;;;;;;;1.60;0.88;;;16.50;54.70;;;;;;5068441;28;45301;-78
2022/12/25 09:02:47;;;;;;;1.27;0.93;;;16.50;54.70;;;;;;5068113;28;45311;-78
2022/12/25 09:05:14;;;;;;;1.05;0.95;;;16.50;54.70;;;;;;5067269;28;45449;-78
2022/12/25 09:07:41;;;;;;;1.48;0.90;;;16.50;54.70;;;;;;5066904;28;45161;-78
2022/12/25 09:10:09;;;;;;;1.70;1.00;;;16.50;54.70;;;;;;5066394;28;45214;-78
2022/12/25 09:12:37;;;;;;;0.90;0.90;;;16.50;54.80;;;;;;5065149;27;45299;-78
2022/12/25 09:15:05;;;;;;;1.13;1.02;;;16.50;54.80;;;;;;5066176;28;46704;-78
2022/12/25 09:17:32;;;;;;;0.85;0.85;;;16.50;54.80;;;;;;5065880;27;45223;-78
2022/12/25 09:19:59;;;;;;;1.00;0.95;;;16.50;54.80;;;;;;5065924;28;45369;-78
2022/12/25 09:22:26;;;;;;;0.98;0.98;;;16.50;54.80;;;;;;5065618;28;45266;-78
2022/12/25 09:24:53;;;;;;;1.35;0.90;;;16.50;54.90;;;;;;5064780;28;46398;-78
2022/12/25 09:27:19;;;;;;;0.90;0.90;;;16.50;54.90;;;;;;5064463;28;45215;-78
2022/12/25 09:29:48;;;;;;;1.00;0.90;;;16.50;54.90;;;;;;5064812;28;45188;-78
2022/12/25 09:32:14;;;;;;;1.25;1.00;;;16.50;54.90;;;;;;5064915;28;45241;-78
2022/12/25 09:34:41;;;;;;;0.90;0.90;;;16.50;54.90;;;;;;5064143;28;46743;-78
2022/12/25 09:37:08;;;;;;;1.02;0.95;;;16.50;54.90;;;;;;5064292;27;45349;-78
2022/12/25 09:39:35;;;;;;;0.98;0.90;;;16.50;54.90;;;;;;5065007;28;45284;-78
2022/12/25 09:42:03;;;;;;;1.17;0.90;;;16.50;54.90;;;;;;5061800;28;45263;-78
2022/12/25 09:44:31;;;;;;;0.88;0.82;;;16.50;54.90;;;;;;5063708;28;46415;-78
2022/12/25 09:47:00;;;;;;;1.73;1.10;;;16.60;54.90;;;;;;5063999;28;45297;-78
2022/12/25 09:49:31;;;;;;;1.10;1.00;;;16.60;54.90;;;;;;5064169;28;45260;-78
2022/12/25 09:51:59;;;;;;;1.10;1.00;;;16.60;54.90;;;;;;5064306;28;45305;-78
2022/12/25 09:54:31;;;;;;;1.08;0.93;;;16.60;54.90;;;;;;5066675;28;46343;-78
2022/12/25 09:56:58;;;;;;;0.90;0.90;;;16.60;54.90;;;;;;5068327;28;45199;-78
2022/12/25 09:59:26;;;;;;;0.88;0.88;;;16.60;54.90;;;;;;5068341;28;45200;-78
2022/12/25 10:02:18;;;;;;;1.10;0.95;;;16.60;54.90;;;;;;5068276;27;45180;-78
2022/12/25 10:04:52;;;;;;;0.70;0.70;;;16.60;55.50;;;;;;5077469;27;47615;-78
2022/12/25 10:07:23;;;;;;;0.95;0.85;;;16.60;54.90;;;;;;5066758;28;45397;-78
2022/12/25 10:09:55;;;;;;;0.90;0.90;;;16.70;54.90;;;;;;5066743;28;45384;-78
2022/12/25 10:12:29;;;;;;;1.17;1.00;;;16.70;54.90;;;;;;5066729;27;45113;-78
2022/12/25 10:15:03;;;;;;;0.90;0.90;;;16.70;55.00;;;;;;5066332;27;45503;-78
2022/12/25 10:17:36;;;;;;;0.93;0.90;;;16.70;55.00;;;;;;5066536;28;45180;-78
2022/12/25 10:20:07;;;;;;;1.05;1.00;;;16.70;55.00;;;;;;5066540;28;45284;-78
2022/12/25 10:22:36;;;;;;;1.00;1.00;;;16.70;55.00;;;;;;5066694;28;45439;-78
2022/12/25 10:25:03;;;;;;;0.90;0.90;;;16.70;55.10;;;;;;5066214;28;46629;-78
2022/12/25 10:27:31;;;;;;;0.80;0.80;;;16.70;55.10;;;;;;5066008;28;45359;-78
2022/12/25 10:29:58;;;;;;;1.05;0.95;;;16.70;55.10;;;;;;5066452;28;45199;-78
2022/12/25 10:32:25;;;;;;;0.82;0.82;;;16.70;55.00;;;;;;5066401;27;45384;-78
2022/12/25 10:34:53;;;;;;;2.35;0.93;;;16.70;55.60;;;;;;5065944;28;46694;-78
2022/12/25 10:37:19;;;;;;;1.25;1.00;;;16.80;55.00;;;;;;5066125;27;45123;-78
2022/12/25 10:39:46;;;;;;;0.75;0.75;;;16.80;55.00;;;;;;5066146;28;45189;-77
2022/12/25 10:42:26;;;;;;;1.10;1.00;;;16.80;55.00;;;;;;5065543;28;45196;-78
2022/12/25 10:45:00;;;;;;;1.42;0.90;;;16.80;55.00;;;;;;5065577;28;45312;-78
2022/12/25 10:47:28;;;;;;;1.10;1.00;;;16.80;55.00;;;;;;5065333;28;45256;-78
2022/12/25 10:49:56;;;;;;;1.10;1.00;;;16.80;55.00;;;;;;5065530;28;45209;-78
2022/12/25 10:52:25;;;;;;;0.90;0.90;;;16.80;54.90;;;;;;5066137;28;45191;-78
2022/12/25 10:54:52;;;;;;;1.38;1.27;;;16.80;55.00;;;;;;5065909;28;46670;-77
2022/12/25 10:57:20;;;;;;;1.60;0.90;;;16.80;55.00;;;;;;5065902;28;45429;-78
2022/12/25 10:59:48;;;;;;;0.93;0.93;;;16.90;55.00;;;;;;5065987;28;45238;-78
2022/12/25 11:02:17;;;;;;;1.00;1.00;;;16.90;54.90;;;;;;5066051;27;45271;-78
2022/12/25 11:04:44;;;;;;;0.90;0.90;;;16.90;54.80;;;;;;5064523;28;46667;-78
2022/12/25 11:07:25;;;;;;;0.95;0.90;;;16.90;54.80;;;;;;5065587;28;45474;-78
2022/12/25 11:09:52;;;;;;;1.50;0.80;;;17.00;54.80;;;;;;5065966;28;45240;-78
2022/12/25 11:12:20;;;;;;;1.40;0.90;;;17.00;54.80;;;;;;5065900;28;45619;-78
2022/12/25 11:14:55;;;;;;;1.05;0.95;;;17.00;54.70;;;;;;5065743;28;45217;-78
2022/12/25 11:17:22;;;;;;;0.85;0.85;;;17.00;54.70;;;;;;5065810;28;45115;-78
2022/12/25 11:19:52;;;;;;;1.23;1.13;;;17.00;54.70;;;;;;5065575;27;45229;-78
2022/12/25 11:22:20;;;;;;;1.48;1.17;;;17.10;54.70;;;;;;5065941;28;45302;-78
2022/12/25 11:24:47;;;;;;;0.98;0.90;;;17.10;54.60;;;;;;5065669;27;46366;-78
2022/12/25 11:27:25;;;;;;;0.88;0.77;;;17.20;54.50;;;;;;5065359;27;45201;-78
2022/12/25 11:29:55;;;;;;;1.10;0.80;;;17.30;54.30;;;;;;5065742;28;45239;-78
2022/12/25 11:32:25;;;;;;;0.70;0.70;;;17.30;54.20;;;;;;5065760;27;45395;-78
2022/12/25 11:34:52;;;;;;;0.73;0.73;;;17.40;54.10;;;;;;5065312;28;45541;-78
2022/12/25 11:37:21;;;;;;;0.73;0.73;;;17.40;54.00;;;;;;5065412;28;45297;-78
2022/12/25 11:39:48;;;;;;;1.08;1.00;;;17.50;53.90;;;;;;5065481;28;45158;-78
2022/12/25 11:42:18;;;;;;;0.85;0.85;;;17.50;53.80;;;;;;5065810;28;45248;-78
2022/12/25 11:44:47;;;;;;;1.02;0.80;;;17.50;53.70;;;;;;5062723;28;46172;-78
2022/12/25 11:47:17;;;;;;;0.80;0.80;;;17.60;53.60;;;;;;5064745;27;45329;-78
2022/12/25 11:49:47;;;;;;;0.98;0.88;;;17.60;54.10;;;;;;5065053;27;45235;-78
2022/12/25 11:52:14;;;;;;;0.85;0.85;;;17.60;53.50;;;;;;5065293;27;45193;-78
2022/12/25 11:54:46;;;;;;;0.75;0.75;;;17.70;53.50;;;;;;5065015;28;45321;-78
2022/12/25 11:57:12;;;;;;;1.08;0.70;;;17.70;53.40;;;;;;5064978;28;45249;-78
2022/12/25 11:59:44;;;;;;;0.90;0.90;;;17.70;53.40;;;;;;5065377;28;45214;-78
2022/12/25 12:02:18;;;;;;;0.80;0.80;;;17.80;53.30;;;;;;5062884;28;45193;-78
2022/12/25 12:04:45;;;;;;;1.13;1.05;;;17.80;53.20;;;;;;5065094;28;45469;-78
2022/12/25 12:07:17;;;;;;;0.90;0.90;;;17.80;53.10;;;;;;5064975;28;45229;-78
2022/12/25 12:09:48;;;;;;;1.25;0.90;;;17.70;53.20;;;;;;5065302;27;45372;-78
2022/12/25 12:12:16;;;;;;;0.80;0.80;;;17.60;53.50;;;;;;5062794;28;45339;-78
2022/12/25 12:14:47;;;;;;;0.90;0.90;;;17.60;53.80;;;;;;5064785;28;46419;-78
2022/12/25 12:17:15;;;;;;;0.85;0.85;;;17.60;54.00;;;;;;5061858;28;45240;-78
2022/12/25 12:19:42;;;;;;;0.90;0.90;;;17.50;54.00;;;;;;5065016;28;45247;-78
2022/12/25 12:22:16;;;;;;;0.75;0.75;;;17.50;54.00;;;;;;5065162;28;45484;-78
2022/12/25 12:24:44;;;;;;;0.88;0.85;;;17.60;54.00;;;;;;5064807;28;45434;-78
2022/12/25 12:27:19;;;;;;;0.77;0.77;;;17.60;53.90;;;;;;5064589;28;45249;-78
2022/12/25 12:29:48;;;;;;;0.98;0.93;;;17.60;54.10;;;;;;5064960;28;45252;-78
2022/12/25 12:32:36;;;;;;;0.73;0.73;;;17.50;54.10;;;;;;5062195;28;45283;-78
2022/12/25 12:35:14;;;;;;;0.90;0.90;;;17.50;54.20;;;;;;5066498;27;46517;-78
2022/12/25 12:37:41;;;;;;;0.90;0.90;;;17.40;54.30;;;;;;5064796;28;45183;-78
2022/12/25 12:40:22;;;;;;;0.75;0.75;;;17.40;54.50;;;;;;5064929;28;45246;-79
2022/12/25 12:42:51;;;;;;;0.88;0.82;;;17.40;54.50;;;;;;5064866;27;45307;-78
2022/12/25 12:45:25;;;;;;;0.90;0.90;;;17.40;54.60;;;;;;5064268;27;46931;-78
2022/12/25 12:47:52;;;;;;;0.90;0.90;;;17.40;54.70;;;;;;5064578;28;45301;-77
2022/12/25 12:50:28;;;;;;;1.08;0.80;;;17.30;54.60;;;;;;5064647;28;45217;-78
2022/12/25 12:52:55;;;;;;;1.00;0.85;;;17.30;54.70;;;;;;5064695;27;45448;-78
2022/12/25 12:55:29;;;;;;;0.90;0.90;;;17.30;54.70;;;;;;5064451;28;45280;-78
2022/12/25 12:57:58;;;;;;;1.10;1.00;;;17.30;54.70;;;;;;5064318;27;45314;-78
2022/12/25 13:00:25;;;;;;;1.15;0.90;;;17.30;54.70;;;;;;5064399;28;45348;-78
2022/12/25 13:03:07;;;;;;;0.70;0.70;;;17.30;54.70;;;;;;5064408;28;45404;-78
2022/12/25 13:05:37;;;;;;;0.80;0.80;;;17.30;54.80;;;;;;5064233;28;45505;-77
2022/12/25 13:08:12;;;;;;;0.70;0.70;;;17.30;54.80;;;;;;5064555;28;45239;-78
2022/12/25 13:10:43;;;;;;;0.90;0.73;;;17.30;54.80;;;;;;5061806;28;45190;-78
2022/12/25 13:13:14;;;;;;;0.70;0.70;;;17.30;54.80;;;;;;5064408;28;45443;-78
2022/12/25 13:15:41;;;;;;;0.80;0.80;;;17.30;54.80;;;;;;5064526;28;45486;-78
2022/12/25 13:18:09;;;;;;;0.90;0.90;;;17.30;54.90;;;;;;5063327;28;45255;-78
2022/12/25 13:20:40;;;;;;;1.25;0.77;;;17.30;54.90;;;;;;5064106;28;45184;-78
2022/12/25 13:23:24;;;;;;;0.82;0.82;;;17.30;54.90;;;;;;5064342;28;45382;-78
2022/12/25 13:25:53;;;;;;;0.80;0.80;;;17.30;54.90;;;;;;5064485;27;45586;-78
2022/12/25 13:28:25;;;;;;;0.68;0.68;;;17.30;55.00;;;;;;5062770;27;45312;-77
2022/12/25 13:30:52;;;;;;;0.90;0.90;;;17.30;55.00;;;;;;5064158;27;45311;-78
2022/12/25 13:33:19;;;;;;;0.90;0.90;;;17.30;54.90;;;;;;5061487;28;45226;-78
2022/12/25 13:35:46;;;;;;;0.70;0.70;;;17.30;54.90;;;;;;5064033;28;45614;-78
2022/12/25 13:38:14;;;;;;;0.77;0.77;;;17.30;55.00;;;;;;5063900;28;45184;-78
2022/12/25 13:42:04;;;;;;;0.65;0.65;;;17.30;55.00;;;;;;5063586;27;45255;-78
2022/12/25 13:43:29;;;;;;;0.60;0.60;;;17.30;55.00;;;;;;5063701;27;45582;-78
2022/12/25 13:45:56;;;;;;;0.70;0.70;;;17.30;55.00;;;;;;5063884;28;46219;-78
2022/12/25 13:48:24;;;;;;;1.08;0.80;;;17.30;55.00;;;;;;5063818;28;45141;-78
2022/12/25 13:50:56;;;;;;;0.77;0.77;;;17.20;55.00;;;;;;5063999;28;45239;-78
2022/12/25 13:53:23;;;;;;;0.70;0.70;;;17.30;55.10;;;;;;5063791;27;45248;-78
2022/12/25 13:55:51;;;;;;;0.80;0.80;;;17.20;55.00;;;;;;5063371;27;45710;-78
2022/12/25 13:58:22;;;;;;;0.80;0.80;;;17.30;55.10;;;;;;5063398;28;45352;-78
2022/12/25 14:00:52;;;;;;;0.90;0.90;;;17.30;55.10;;;;;;5063524;28;45155;-78
2022/12/25 14:03:23;;;;;;;0.73;0.70;;;17.30;55.10;;;;;;5063722;27;45274;-78
2022/12/25 14:05:55;;;;;;;0.80;0.80;;;17.30;55.10;;;;;;5063590;28;46668;-78
2022/12/25 14:08:24;;;;;;;0.90;0.90;;;17.30;55.10;;;;;;5063558;28;45248;-78
2022/12/25 14:10:51;;;;;;;1.25;0.98;;;17.30;55.10;;;;;;5063470;28;45180;-78
2022/12/25 14:13:19;;;;;;;0.70;0.70;;;17.30;55.10;;;;;;5063392;27;45514;-78
2022/12/25 14:15:52;;;;;;;0.98;0.80;;;17.30;55.20;;;;;;5060653;28;45406;-79
2022/12/25 14:18:19;;;;;;;0.90;0.90;;;17.30;55.20;;;;;;5063164;28;45295;-78
2022/12/25 14:20:56;;;;;;;1.05;0.90;;;17.30;55.20;;;;;;5063218;28;45335;-78
2022/12/25 14:23:23;;;;;;;0.80;0.80;;;17.30;55.20;;;;;;5063621;27;45312;-78
2022/12/25 14:25:50;;;;;;;0.60;0.60;;;17.30;55.20;;;;;;5062313;28;45231;-77
2022/12/25 14:28:18;;;;;;;0.82;0.80;;;17.20;55.10;;;;;;5062488;28;45311;-78
2022/12/25 14:30:45;;;;;;;0.73;0.73;;;17.30;55.20;;;;;;5063390;28;45257;-78
2022/12/25 14:33:14;;;;;;;0.70;0.70;;;17.20;55.10;;;;;;5063621;28;45184;-78
2022/12/25 14:35:41;;;;;;;0.63;0.63;;;17.20;55.20;;;;;;5063086;28;46259;-78
2022/12/25 14:38:09;;;;;;;0.93;0.93;;;17.20;55.20;;;;;;5063599;28;45374;-78